PWSweather.com
Personal Weather Stations
Station Observations
KWAGIGHA17
Gig Harbor, WA 98332

Gig Harbor, WA 98332

Lat: 47.35323, Lon: -122.58817

Elevation: 318

Station Type: Davis VP2 Wireless

http://www.gigharborweather.com

Latest ConditionsUpdated 11:10:09 AM PDT Saturday, Aug 30, 2014
Currently Today's Max Today's Min Today's Average
Temperature 60.4°F15.8°C 61.4°F16.3°C 58.8°F14.9°C 60.0°F15.6°C
Dew Point 57.8°F14.3°C 57.8°F14.3°C 54.7°F12.6°C 55.6°F13.1°C
Winds Calm Calm 1.5 mph WSW2.4 kmh WSW - 0.1 mph 0.2 kmh
Wind Gusts -- 3.0 mph4.8 kmh - -
Humidity 91% 91% 79% 86%
Pressure 29.88 in1011.9 mb 29.93 in1013.5 mb 29.88 in1011.9 mb -
Precipitation - 0.12 in3.0 mm - -
Hour Temp Dew Point Humidity Winds Wind Gusts Pressure Precip Precip Rate Daily Precip Total
11:10 AM 60.4°F15.8°C 57.8°F14.3°C 91% Calm Calm -- 29.88 in1011.9 mb 0.00 in0.0 mm 0.00 in/hr0.0 mm/hr 0.12 in3.0 mm
11:00 AM 60.2°F15.7°C 57.6°F14.2°C 91% Calm Calm -- 29.89 in1012.2 mb 0.00 in0.0 mm 0.00 in/hr0.0 mm/hr 0.12 in3.0 mm
10:50 AM 60.2°F15.7°C 57.6°F14.2°C 91% Calm Calm -- 29.88 in1011.9 mb 0.00 in0.0 mm 0.00 in/hr0.0 mm/hr 0.12 in3.0 mm
10:40 AM 60.0°F15.6°C 57.4°F14.1°C 91% Calm Calm -- 29.89 in1012.2 mb 0.00 in0.0 mm 0.00 in/hr0.0 mm/hr 0.12 in3.0 mm
10:30 AM 60.0°F15.6°C 57.4°F14.1°C 91% Calm Calm -- 29.89 in1012.2 mb 0.00 in0.0 mm 0.00 in/hr0.0 mm/hr 0.12 in3.0 mm
10:20 AM 59.9°F15.5°C 57.3°F14.1°C 91% Calm Calm -- 29.89 in1012.2 mb 0.00 in0.0 mm 0.00 in/hr0.0 mm/hr 0.12 in3.0 mm
10:10 AM 59.5°F15.3°C 56.9°F13.8°C 91% Calm Calm -- 29.89 in1012.2 mb 0.00 in0.0 mm 0.00 in/hr0.0 mm/hr 0.12 in3.0 mm
10:00 AM 59.2°F15.1°C 56.6°F13.7°C 91% Calm Calm -- 29.89 in1012.2 mb 0.00 in0.0 mm 0.00 in/hr0.0 mm/hr 0.12 in3.0 mm
09:50 AM 59.3°F15.2°C 56.7°F13.7°C 91% Calm Calm -- 29.89 in1012.2 mb 0.01 in0.3 mm 0.06 in/hr1.5 mm/hr 0.12 in3.0 mm
09:40 AM 59.2°F15.1°C 56.6°F13.7°C 91% Calm Calm -- 29.89 in1012.2 mb 0.01 in0.3 mm 0.06 in/hr1.5 mm/hr 0.11 in2.8 mm
09:30 AM 59.1°F15.1°C 56.5°F13.6°C 91% Calm Calm -- 29.89 in1012.2 mb 0.00 in0.0 mm 0.00 in/hr0.0 mm/hr 0.10 in2.5 mm
09:20 AM 58.9°F14.9°C 56.0°F13.3°C 90% Calm Calm -- 29.89 in1012.2 mb 0.01 in0.3 mm 0.06 in/hr1.5 mm/hr 0.10 in2.5 mm
09:10 AM 58.8°F14.9°C 55.9°F13.3°C 90% Calm Calm -- 29.89 in1012.2 mb 0.03 in0.8 mm 0.18 in/hr4.6 mm/hr 0.09 in2.3 mm
09:00 AM 58.8°F14.9°C 55.6°F13.1°C 89% Calm Calm -- 29.89 in1012.2 mb 0.02 in0.5 mm 0.02 in/hr0.5 mm/hr 0.06 in1.5 mm
08:50 AM 59.0°F15.0°C 55.7°F13.2°C 89% Calm Calm -- 29.89 in1012.2 mb 0.04 in1.0 mm 0.24 in/hr6.1 mm/hr 0.04 in1.0 mm
08:40 AM 59.0°F15.0°C 55.8°F13.2°C 89% Calm Calm -- 29.89 in1012.2 mb 0.01 in0.3 mm 0.06 in/hr1.5 mm/hr 0.01 in0.3 mm
08:30 AM 59.2°F15.1°C 56.0°F13.3°C 89% Calm Calm -- 29.89 in1012.2 mb 0.00 in0.0 mm 0.00 in/hr0.0 mm/hr 0.00 in0.0 mm
08:20 AM 59.1°F15.1°C 55.5°F13.1°C 88% Calm Calm -- 29.89 in1012.2 mb 0.00 in0.0 mm 0.00 in/hr0.0 mm/hr 0.00 in0.0 mm
08:10 AM 59.0°F15.0°C 55.5°F13.1°C 88% Calm Calm -- 29.89 in1012.2 mb 0.00 in0.0 mm 0.00 in/hr0.0 mm/hr 0.00 in0.0 mm
08:00 AM 59.1°F15.1°C 55.5°F13.1°C 88% Calm Calm -- 29.89 in1012.2 mb 0.00 in0.0 mm 0.00 in/hr0.0 mm/hr 0.00 in0.0 mm
07:50 AM 59.1°F15.1°C 55.5°F13.1°C 88% Calm Calm -- 29.89 in1012.2 mb 0.00 in0.0 mm 0.00 in/hr0.0 mm/hr 0.00 in0.0 mm
07:40 AM 59.2°F15.1°C 55.6°F13.1°C 88% Calm Calm -- 29.89 in1012.2 mb 0.00 in0.0 mm 0.00 in/hr0.0 mm/hr 0.00 in0.0 mm
07:30 AM 59.3°F15.2°C 55.7°F13.2°C 88% Calm Calm -- 29.89 in1012.2 mb 0.00 in0.0 mm 0.00 in/hr0.0 mm/hr 0.00 in0.0 mm
07:20 AM 59.3°F15.2°C 55.7°F13.2°C 88% Calm Calm -- 29.89 in1012.2 mb 0.00 in0.0 mm 0.00 in/hr0.0 mm/hr 0.00 in0.0 mm
07:10 AM 59.2°F15.1°C 55.6°F13.1°C 88% Calm Calm -- 29.89 in1012.2 mb 0.00 in0.0 mm 0.00 in/hr0.0 mm/hr 0.00 in0.0 mm
07:00 AM 59.3°F15.2°C 55.7°F13.2°C 88% Calm Calm -- 29.89 in1012.2 mb 0.00 in0.0 mm 0.00 in/hr0.0 mm/hr 0.00 in0.0 mm
06:50 AM 59.3°F15.2°C 55.7°F13.2°C 88% Calm Calm -- 29.89 in1012.2 mb 0.00 in0.0 mm 0.00 in/hr0.0 mm/hr 0.00 in0.0 mm
06:40 AM 59.4°F15.2°C 55.8°F13.2°C 88% Calm Calm -- 29.89 in1012.2 mb 0.00 in0.0 mm 0.00 in/hr0.0 mm/hr 0.00 in0.0 mm
06:30 AM 59.4°F15.2°C 55.5°F13.1°C 87% Calm Calm -- 29.89 in1012.2 mb 0.00 in0.0 mm 0.00 in/hr0.0 mm/hr 0.00 in0.0 mm
06:20 AM 59.5°F15.3°C 55.6°F13.1°C 87% Calm Calm -- 29.89 in1012.2 mb 0.00 in0.0 mm 0.00 in/hr0.0 mm/hr 0.00 in0.0 mm
06:10 AM 59.5°F15.3°C 55.6°F13.1°C 87% Calm Calm -- 29.89 in1012.2 mb 0.00 in0.0 mm 0.00 in/hr0.0 mm/hr 0.00 in0.0 mm
06:00 AM 59.6°F15.3°C 55.7°F13.2°C 87% Calm Calm -- 29.89 in1012.2 mb 0.00 in0.0 mm 0.00 in/hr0.0 mm/hr 0.00 in0.0 mm
05:50 AM 59.7°F15.4°C 55.5°F13.1°C 86% Calm Calm -- 29.89 in1012.2 mb 0.00 in0.0 mm 0.00 in/hr0.0 mm/hr 0.00 in0.0 mm
05:40 AM 59.7°F15.4°C 55.5°F13.1°C 86% Calm Calm -- 29.89 in1012.2 mb 0.00 in0.0 mm 0.00 in/hr0.0 mm/hr 0.00 in0.0 mm
05:30 AM 59.9°F15.5°C 55.4°F13.0°C 85% Calm Calm -- 29.89 in1012.2 mb 0.00 in0.0 mm 0.00 in/hr0.0 mm/hr 0.00 in0.0 mm
05:20 AM 60.0°F15.6°C 55.5°F13.1°C 85% Calm Calm -- 29.89 in1012.2 mb 0.00 in0.0 mm 0.00 in/hr0.0 mm/hr 0.00 in0.0 mm
05:10 AM 60.1°F15.6°C 55.2°F12.9°C 84% Calm Calm -- 29.90 in1012.5 mb 0.00 in0.0 mm 0.00 in/hr0.0 mm/hr 0.00 in0.0 mm
05:00 AM 60.2°F15.7°C 55.0°F12.8°C 83% Calm Calm -- 29.90 in1012.5 mb 0.00 in0.0 mm 0.00 in/hr0.0 mm/hr 0.00 in0.0 mm
04:50 AM 60.3°F15.7°C 55.1°F12.8°C 83% Calm Calm -- 29.90 in1012.5 mb 0.00 in0.0 mm 0.00 in/hr0.0 mm/hr 0.00 in0.0 mm
04:40 AM 60.3°F15.7°C 55.1°F12.8°C 83% Calm Calm -- 29.91 in1012.9 mb 0.00 in0.0 mm 0.00 in/hr0.0 mm/hr 0.00 in0.0 mm
04:30 AM 60.3°F15.7°C 54.8°F12.7°C 82% Calm Calm -- 29.91 in1012.9 mb 0.00 in0.0 mm 0.00 in/hr0.0 mm/hr 0.00 in0.0 mm
04:20 AM 60.3°F15.7°C 54.8°F12.7°C 82% Calm Calm -- 29.91 in1012.9 mb 0.00 in0.0 mm 0.00 in/hr0.0 mm/hr 0.00 in0.0 mm
04:10 AM 60.3°F15.7°C 55.1°F12.8°C 83% 0.3 mph WSW0.5 kmh WSW 3.0 mph4.8 kmh 29.91 in1012.9 mb 0.00 in0.0 mm 0.00 in/hr0.0 mm/hr 0.00 in0.0 mm
04:00 AM 60.2°F15.7°C 55.0°F12.8°C 83% 0.7 mph WSW1.1 kmh WSW -- 29.91 in1012.9 mb 0.00 in0.0 mm 0.00 in/hr0.0 mm/hr 0.00 in0.0 mm
03:50 AM 60.2°F15.7°C 55.0°F12.8°C 83% Calm Calm 1.0 mph1.6 kmh 29.91 in1012.9 mb 0.00 in0.0 mm 0.00 in/hr0.0 mm/hr 0.00 in0.0 mm
03:40 AM 60.2°F15.7°C 55.0°F12.8°C 83% Calm Calm -- 29.91 in1012.9 mb 0.00 in0.0 mm 0.00 in/hr0.0 mm/hr 0.00 in0.0 mm
03:30 AM 60.2°F15.7°C 55.0°F12.8°C 83% Calm Calm 1.0 mph1.6 kmh 29.91 in1012.9 mb 0.00 in0.0 mm 0.00 in/hr0.0 mm/hr 0.00 in0.0 mm
03:20 AM 60.2°F15.7°C 55.0°F12.8°C 83% Calm Calm 1.0 mph1.6 kmh 29.91 in1012.9 mb 0.00 in0.0 mm 0.00 in/hr0.0 mm/hr 0.00 in0.0 mm
03:10 AM 60.3°F15.7°C 55.1°F12.8°C 83% Calm Calm -- 29.92 in1013.2 mb 0.00 in0.0 mm 0.00 in/hr0.0 mm/hr 0.00 in0.0 mm
03:00 AM 60.3°F15.7°C 55.1°F12.8°C 83% 0.8 mph WSW1.3 kmh WSW 3.0 mph4.8 kmh 29.91 in1012.9 mb 0.00 in0.0 mm 0.00 in/hr0.0 mm/hr 0.00 in0.0 mm
02:50 AM 60.3°F15.7°C 55.1°F12.8°C 83% Calm Calm -- 29.91 in1012.9 mb 0.00 in0.0 mm 0.00 in/hr0.0 mm/hr 0.00 in0.0 mm
02:40 AM 60.4°F15.8°C 55.2°F12.9°C 83% Calm Calm -- 29.91 in1012.9 mb 0.00 in0.0 mm 0.00 in/hr0.0 mm/hr 0.00 in0.0 mm
02:30 AM 60.5°F15.8°C 55.3°F12.9°C 83% Calm Calm -- 29.92 in1013.2 mb 0.00 in0.0 mm 0.00 in/hr0.0 mm/hr 0.00 in0.0 mm
02:20 AM 60.5°F15.8°C 55.3°F12.9°C 83% Calm Calm -- 29.92 in1013.2 mb 0.00 in0.0 mm 0.00 in/hr0.0 mm/hr 0.00 in0.0 mm
02:10 AM 60.6°F15.9°C 55.4°F13.0°C 83% Calm Calm -- 29.91 in1012.9 mb 0.00 in0.0 mm 0.00 in/hr0.0 mm/hr 0.00 in0.0 mm
02:00 AM 60.6°F15.9°C 55.1°F12.8°C 82% Calm Calm -- 29.92 in1013.2 mb 0.00 in0.0 mm 0.00 in/hr0.0 mm/hr 0.00 in0.0 mm
01:50 AM 60.8°F16.0°C 55.3°F12.9°C 82% Calm Calm -- 29.92 in1013.2 mb 0.00 in0.0 mm 0.00 in/hr0.0 mm/hr 0.00 in0.0 mm
01:40 AM 60.9°F16.1°C 55.4°F13.0°C 82% 1.5 mph WSW2.4 kmh WSW 3.0 mph4.8 kmh 29.92 in1013.2 mb 0.00 in0.0 mm 0.00 in/hr0.0 mm/hr 0.00 in0.0 mm
01:30 AM 60.9°F16.1°C 55.4°F13.0°C 82% 0.5 mph WSW0.8 kmh WSW 3.0 mph4.8 kmh 29.93 in1013.5 mb 0.00 in0.0 mm 0.00 in/hr0.0 mm/hr 0.00 in0.0 mm
01:20 AM 61.0°F16.1°C 55.5°F13.1°C 82% 0.1 mph WSW0.2 kmh WSW 1.0 mph1.6 kmh 29.93 in1013.5 mb 0.00 in0.0 mm 0.00 in/hr0.0 mm/hr 0.00 in0.0 mm
01:10 AM 61.0°F16.1°C 55.4°F13.0°C 82% Calm Calm -- 29.93 in1013.5 mb 0.00 in0.0 mm 0.00 in/hr0.0 mm/hr 0.00 in0.0 mm
01:00 AM 60.9°F16.1°C 55.0°F12.8°C 81% 0.1 mph WSW0.2 kmh WSW 1.0 mph1.6 kmh 29.93 in1013.5 mb 0.00 in0.0 mm 0.00 in/hr0.0 mm/hr 0.00 in0.0 mm
12:50 AM 60.9°F16.1°C 55.1°F12.8°C 81% Calm Calm -- 29.93 in1013.5 mb 0.00 in0.0 mm 0.00 in/hr0.0 mm/hr 0.00 in0.0 mm
12:40 AM 61.1°F16.2°C 54.9°F12.7°C 80% Calm Calm -- 29.93 in1013.5 mb 0.00 in0.0 mm 0.00 in/hr0.0 mm/hr 0.00 in0.0 mm
12:30 AM 61.3°F16.3°C 55.1°F12.8°C 80% Calm Calm -- 29.93 in1013.5 mb 0.00 in0.0 mm 0.00 in/hr0.0 mm/hr 0.00 in0.0 mm
12:20 AM 61.3°F16.3°C 54.7°F12.6°C 79% 0.3 mph WSW0.5 kmh WSW 1.0 mph1.6 kmh 29.93 in1013.5 mb 0.00 in0.0 mm 0.00 in/hr0.0 mm/hr 0.00 in0.0 mm
12:10 AM 61.3°F16.3°C 54.7°F12.6°C 79% Calm Calm -- 29.93 in1013.5 mb 0.00 in0.0 mm 0.00 in/hr0.0 mm/hr 0.00 in0.0 mm
12:00 AM 61.4°F16.3°C 54.8°F12.7°C 79% Calm Calm -- 29.93 in1013.5 mb 0.00 in0.0 mm 0.00 in/hr0.0 mm/hr 0.00 in0.0 mm